sensor_id;sensor_type;location;lat;lon;timestamp;P1;durP1;ratioP1;P2;durP2;ratioP2
44973;SDS011;60981;50.720;11.342;2022-10-16T18:59:29;8.88;;;3.58;;
44973;SDS011;60981;50.720;11.342;2022-10-16T19:00:33;7.70;;;3.30;;
44973;SDS011;60981;50.720;11.342;2022-10-16T19:01:36;7.37;;;3.60;;
44973;SDS011;60981;50.720;11.342;2022-10-16T19:02:55;7.28;;;3.22;;
44973;SDS011;60981;50.720;11.342;2022-10-16T19:04:01;6.70;;;3.40;;
44973;SDS011;60981;50.720;11.342;2022-10-16T19:05:08;7.75;;;3.10;;
44973;SDS011;60981;50.720;11.342;2022-10-16T19:06:17;5.75;;;2.90;;
44973;SDS011;60981;50.720;11.342;2022-10-16T19:07:21;6.63;;;2.95;;
44973;SDS011;60981;50.720;11.342;2022-10-16T19:08:22;5.63;;;2.80;;
44973;SDS011;60981;50.720;11.342;2022-10-16T19:09:26;6.60;;;3.03;;
44973;SDS011;60981;50.720;11.342;2022-10-16T19:10:29;5.80;;;2.50;;
44973;SDS011;60981;50.720;11.342;2022-10-16T19:11:35;5.57;;;2.30;;
44973;SDS011;60981;50.720;11.342;2022-10-16T19:12:40;4.38;;;2.33;;
44973;SDS011;60981;50.720;11.342;2022-10-16T19:13:45;6.00;;;2.55;;
44973;SDS011;60981;50.720;11.342;2022-10-16T19:14:51;6.80;;;2.75;;
44973;SDS011;60981;50.720;11.342;2022-10-16T19:15:55;6.80;;;2.50;;
44973;SDS011;60981;50.720;11.342;2022-10-16T19:17:05;6.35;;;2.40;;
44973;SDS011;60981;50.720;11.342;2022-10-16T19:18:08;4.50;;;2.35;;
44973;SDS011;60981;50.720;11.342;2022-10-16T19:19:13;4.30;;;2.43;;
44973;SDS011;60981;50.720;11.342;2022-10-16T19:20:20;5.03;;;1.90;;
44973;SDS011;60981;50.720;11.342;2022-10-16T19:21:24;3.95;;;1.98;;
44973;SDS011;60981;50.720;11.342;2022-10-16T19:22:27;6.53;;;1.87;;
44973;SDS011;60981;50.720;11.342;2022-10-16T19:23:51;5.80;;;1.90;;
44973;SDS011;60981;50.720;11.342;2022-10-16T19:24:58;5.45;;;2.25;;
44973;SDS011;60981;50.720;11.342;2022-10-16T19:26:07;7.10;;;2.85;;
44973;SDS011;60981;50.720;11.342;2022-10-16T19:27:11;5.78;;;2.20;;
44973;SDS011;60981;50.720;11.342;2022-10-16T19:28:16;6.80;;;3.92;;
44973;SDS011;60981;50.720;11.342;2022-10-16T19:29:18;7.18;;;4.07;;
44973;SDS011;60981;50.720;11.342;2022-10-16T19:30:21;9.38;;;4.35;;
44973;SDS011;60981;50.720;11.342;2022-10-16T19:31:24;6.72;;;3.70;;
44973;SDS011;60981;50.720;11.342;2022-10-16T19:32:30;6.55;;;3.05;;
44973;SDS011;60981;50.720;11.342;2022-10-16T19:33:34;6.00;;;3.10;;
44973;SDS011;60981;50.720;11.342;2022-10-16T19:34:36;8.95;;;3.90;;
44973;SDS011;60981;50.720;11.342;2022-10-16T19:35:38;7.95;;;4.13;;
44973;SDS011;60981;50.720;11.342;2022-10-16T19:36:42;8.93;;;4.32;;
44973;SDS011;60981;50.720;11.342;2022-10-16T19:37:48;8.75;;;4.20;;
44973;SDS011;60981;50.720;11.342;2022-10-16T19:38:54;7.90;;;4.20;;
44973;SDS011;60981;50.720;11.342;2022-10-16T19:40:02;8.25;;;5.57;;
44973;SDS011;60981;50.720;11.342;2022-10-16T19:41:09;9.27;;;5.10;;
44973;SDS011;60981;50.720;11.342;2022-10-16T19:42:15;9.23;;;5.53;;
44973;SDS011;60981;50.720;11.342;2022-10-16T19:43:19;6.47;;;3.70;;
44973;SDS011;60981;50.720;11.342;2022-10-16T19:44:20;6.85;;;2.97;;
44973;SDS011;60981;50.720;11.342;2022-10-16T19:45:21;4.90;;;2.90;;
44973;SDS011;60981;50.720;11.342;2022-10-16T19:46:26;6.75;;;3.58;;
44973;SDS011;60981;50.720;11.342;2022-10-16T19:47:29;6.72;;;3.47;;
44973;SDS011;60981;50.720;11.342;2022-10-16T19:48:32;7.55;;;3.03;;
44973;SDS011;60981;50.720;11.342;2022-10-16T19:49:34;8.65;;;3.60;;
44973;SDS011;60981;50.720;11.342;2022-10-16T19:50:43;7.53;;;3.05;;
44973;SDS011;60981;50.720;11.342;2022-10-16T19:51:49;7.78;;;2.97;;
44973;SDS011;60981;50.720;11.342;2022-10-16T19:52:55;6.10;;;3.03;;
44973;SDS011;60981;50.720;11.342;2022-10-16T19:53:57;7.82;;;2.90;;
44973;SDS011;60981;50.720;11.342;2022-10-16T19:55:02;7.20;;;2.80;;
44973;SDS011;60981;50.720;11.342;2022-10-16T19:56:18;7.53;;;2.92;;
44973;SDS011;60981;50.720;11.342;2022-10-16T19:57:26;6.50;;;3.20;;
44973;SDS011;60981;50.720;11.342;2022-10-16T19:58:27;6.90;;;3.00;;
44973;SDS011;60981;50.720;11.342;2022-10-16T19:59:29;6.72;;;3.10;;
44973;SDS011;60981;50.720;11.342;2022-10-16T20:00:30;6.47;;;3.00;;
44973;SDS011;60981;50.720;11.342;2022-10-16T20:01:32;7.53;;;3.10;;
44973;SDS011;60981;50.720;11.342;2022-10-16T20:02:35;6.93;;;3.20;;
44973;SDS011;60981;50.720;11.342;2022-10-16T20:03:37;6.07;;;3.20;;
44973;SDS011;60981;50.720;11.342;2022-10-16T20:04:40;6.57;;;3.40;;
44973;SDS011;60981;50.720;11.342;2022-10-16T20:05:51;5.35;;;3.10;;
44973;SDS011;60981;50.720;11.342;2022-10-16T20:06:54;6.00;;;3.10;;
44973;SDS011;60981;50.720;11.342;2022-10-16T20:08:02;8.68;;;3.30;;
44973;SDS011;60981;50.720;11.342;2022-10-16T20:09:05;6.40;;;3.20;;
44973;SDS011;60981;50.720;11.342;2022-10-16T20:10:10;6.85;;;3.33;;
44973;SDS011;60981;50.720;11.342;2022-10-16T20:11:15;6.18;;;2.92;;
44973;SDS011;60981;50.720;11.342;2022-10-16T20:12:18;7.43;;;3.10;;
44973;SDS011;60981;50.720;11.342;2022-10-16T20:13:21;7.25;;;3.22;;
44973;SDS011;60981;50.720;11.342;2022-10-16T20:14:23;6.65;;;3.10;;
44973;SDS011;60981;50.720;11.342;2022-10-16T20:15:27;5.45;;;2.80;;
44973;SDS011;60981;50.720;11.342;2022-10-16T20:16:30;5.90;;;2.80;;
44973;SDS011;60981;50.720;11.342;2022-10-16T20:17:32;6.43;;;2.70;;
44973;SDS011;60981;50.720;11.342;2022-10-16T20:18:35;5.95;;;2.58;;
44973;SDS011;60981;50.720;11.342;2022-10-16T20:19:37;4.82;;;2.60;;
44973;SDS011;60981;50.720;11.342;2022-10-16T20:20:41;7.95;;;2.83;;
44973;SDS011;60981;50.720;11.342;2022-10-16T20:21:49;6.82;;;2.70;;
44973;SDS011;60981;50.720;11.342;2022-10-16T20:22:51;5.25;;;2.47;;
44973;SDS011;60981;50.720;11.342;2022-10-16T20:23:54;5.80;;;2.63;;
44973;SDS011;60981;50.720;11.342;2022-10-16T20:24:57;6.10;;;2.60;;
44973;SDS011;60981;50.720;11.342;2022-10-16T20:26:02;3.75;;;2.25;;
44973;SDS011;60981;50.720;11.342;2022-10-16T20:27:06;5.72;;;2.70;;
44973;SDS011;60981;50.720;11.342;2022-10-16T20:28:08;6.03;;;2.50;;
44973;SDS011;60981;50.720;11.342;2022-10-16T20:29:16;6.40;;;2.60;;
44973;SDS011;60981;50.720;11.342;2022-10-16T20:30:19;7.00;;;2.25;;
44973;SDS011;60981;50.720;11.342;2022-10-16T20:31:31;4.35;;;1.95;;
44973;SDS011;60981;50.720;11.342;2022-10-16T20:32:33;4.78;;;2.05;;
44973;SDS011;60981;50.720;11.342;2022-10-16T20:33:36;5.80;;;2.42;;
44973;SDS011;60981;50.720;11.342;2022-10-16T20:34:38;6.70;;;2.60;;
44973;SDS011;60981;50.720;11.342;2022-10-16T20:35:46;6.07;;;2.40;;
44973;SDS011;60981;50.720;11.342;2022-10-16T20:36:49;5.25;;;2.88;;
44973;SDS011;60981;50.720;11.342;2022-10-16T20:37:52;7.15;;;2.72;;
44973;SDS011;60981;50.720;11.342;2022-10-16T20:38:53;6.60;;;2.65;;
44973;SDS011;60981;50.720;11.342;2022-10-16T20:39:56;6.38;;;2.53;;
44973;SDS011;60981;50.720;11.342;2022-10-16T20:41:04;5.35;;;2.65;;
44973;SDS011;60981;50.720;11.342;2022-10-16T20:42:05;5.65;;;2.53;;
44973;SDS011;60981;50.720;11.342;2022-10-16T20:43:11;7.00;;;2.40;;
44973;SDS011;60981;50.720;11.342;2022-10-16T20:44:17;8.15;;;2.80;;
44973;SDS011;60981;50.720;11.342;2022-10-16T20:45:19;5.45;;;2.70;;
44973;SDS011;60981;50.720;11.342;2022-10-16T20:46:23;8.10;;;2.67;;
44973;SDS011;60981;50.720;11.342;2022-10-16T20:47:27;5.63;;;2.38;;
44973;SDS011;60981;50.720;11.342;2022-10-16T20:48:31;6.32;;;2.72;;
44973;SDS011;60981;50.720;11.342;2022-10-16T20:49:34;6.95;;;2.70;;
44973;SDS011;60981;50.720;11.342;2022-10-16T20:50:42;6.80;;;3.00;;
44973;SDS011;60981;50.720;11.342;2022-10-16T20:51:45;7.63;;;2.80;;
44973;SDS011;60981;50.720;11.342;2022-10-16T20:52:52;7.10;;;2.80;;
44973;SDS011;60981;50.720;11.342;2022-10-16T20:55:18;7.30;;;3.08;;
44973;SDS011;60981;50.720;11.342;2022-10-16T20:56:21;6.85;;;2.95;;
44973;SDS011;60981;50.720;11.342;2022-10-16T20:57:27;7.18;;;2.85;;
44973;SDS011;60981;50.720;11.342;2022-10-16T20:58:32;5.60;;;2.45;;
44973;SDS011;60981;50.720;11.342;2022-10-16T20:59:35;6.90;;;2.60;;
44973;SDS011;60981;50.720;11.342;2022-10-16T21:00:37;4.72;;;2.53;;
44973;SDS011;60981;50.720;11.342;2022-10-16T21:01:43;5.15;;;2.20;;
44973;SDS011;60981;50.720;11.342;2022-10-16T21:02:48;5.97;;;2.17;;
44973;SDS011;60981;50.720;11.342;2022-10-16T21:03:57;7.65;;;2.47;;
44973;SDS011;60981;50.720;11.342;2022-10-16T21:05:02;5.43;;;2.30;;
44973;SDS011;60981;50.720;11.342;2022-10-16T21:06:05;7.10;;;2.38;;
44973;SDS011;60981;50.720;11.342;2022-10-16T21:07:08;6.10;;;1.85;;
44973;SDS011;60981;50.720;11.342;2022-10-16T21:08:11;5.10;;;2.15;;
44973;SDS011;60981;50.720;11.342;2022-10-16T21:09:15;5.78;;;2.45;;
44973;SDS011;60981;50.720;11.342;2022-10-16T21:10:18;5.88;;;2.15;;
44973;SDS011;60981;50.720;11.342;2022-10-16T21:11:24;6.35;;;2.20;;
44973;SDS011;60981;50.720;11.342;2022-10-16T21:12:28;4.97;;;2.08;;
44973;SDS011;60981;50.720;11.342;2022-10-16T21:13:32;6.10;;;2.35;;
44973;SDS011;60981;50.720;11.342;2022-10-16T21:14:34;4.20;;;2.22;;
44973;SDS011;60981;50.720;11.342;2022-10-16T21:15:47;6.82;;;2.03;;
44973;SDS011;60981;50.720;11.342;2022-10-16T21:16:50;4.95;;;2.25;;
44973;SDS011;60981;50.720;11.342;2022-10-16T21:17:52;5.90;;;2.20;;
44973;SDS011;60981;50.720;11.342;2022-10-16T21:18:57;4.88;;;2.47;;
44973;SDS011;60981;50.720;11.342;2022-10-16T21:20:02;5.60;;;2.22;;
44973;SDS011;60981;50.720;11.342;2022-10-16T21:21:09;5.50;;;2.28;;
44973;SDS011;60981;50.720;11.342;2022-10-16T21:22:20;4.23;;;2.03;;
44973;SDS011;60981;50.720;11.342;2022-10-16T21:23:24;4.15;;;2.08;;
44973;SDS011;60981;50.720;11.342;2022-10-16T21:24:28;5.80;;;2.60;;
44973;SDS011;60981;50.720;11.342;2022-10-16T21:25:30;6.53;;;2.60;;
44973;SDS011;60981;50.720;11.342;2022-10-16T21:26:32;4.88;;;2.22;;
44973;SDS011;60981;50.720;11.342;2022-10-16T21:27:38;7.00;;;2.30;;
44973;SDS011;60981;50.720;11.342;2022-10-16T21:28:41;4.82;;;2.10;;
44973;SDS011;60981;50.720;11.342;2022-10-16T21:29:46;4.30;;;2.20;;
44973;SDS011;60981;50.720;11.342;2022-10-16T21:30:48;8.60;;;2.47;;
44973;SDS011;60981;50.720;11.342;2022-10-16T21:31:50;4.30;;;2.25;;
44973;SDS011;60981;50.720;11.342;2022-10-16T21:32:52;5.30;;;2.33;;
44973;SDS011;60981;50.720;11.342;2022-10-16T21:33:57;5.78;;;2.55;;
44973;SDS011;60981;50.720;11.342;2022-10-16T21:34:59;6.15;;;2.22;;
44973;SDS011;60981;50.720;11.342;2022-10-16T21:36:01;6.55;;;3.00;;
44973;SDS011;60981;50.720;11.342;2022-10-16T21:37:03;5.68;;;2.45;;
44973;SDS011;60981;50.720;11.342;2022-10-16T21:38:06;5.78;;;2.47;;
44973;SDS011;60981;50.720;11.342;2022-10-16T21:39:09;6.15;;;2.90;;
44973;SDS011;60981;50.720;11.342;2022-10-16T21:40:14;6.78;;;2.90;;
44973;SDS011;60981;50.720;11.342;2022-10-16T21:42:38;7.32;;;2.90;;
44973;SDS011;60981;50.720;11.342;2022-10-16T21:43:41;7.25;;;2.90;;
44973;SDS011;60981;50.720;11.342;2022-10-16T21:44:46;4.78;;;2.38;;
44973;SDS011;60981;50.720;11.342;2022-10-16T21:45:48;5.85;;;2.60;;
44973;SDS011;60981;50.720;11.342;2022-10-16T21:46:50;5.22;;;2.60;;
44973;SDS011;60981;50.720;11.342;2022-10-16T21:47:55;6.40;;;2.63;;
44973;SDS011;60981;50.720;11.342;2022-10-16T21:48:59;6.13;;;2.65;;
44973;SDS011;60981;50.720;11.342;2022-10-16T21:50:05;6.55;;;2.70;;
44973;SDS011;60981;50.720;11.342;2022-10-16T21:51:10;6.32;;;2.90;;
44973;SDS011;60981;50.720;11.342;2022-10-16T21:52:13;6.38;;;2.85;;
44973;SDS011;60981;50.720;11.342;2022-10-16T21:53:15;4.97;;;2.10;;
44973;SDS011;60981;50.720;11.342;2022-10-16T21:54:19;5.82;;;2.60;;
44973;SDS011;60981;50.720;11.342;2022-10-16T21:55:24;6.57;;;2.83;;
44973;SDS011;60981;50.720;11.342;2022-10-16T21:56:26;5.65;;;2.70;;
44973;SDS011;60981;50.720;11.342;2022-10-16T21:57:27;4.97;;;2.42;;
44973;SDS011;60981;50.720;11.342;2022-10-16T21:58:32;5.57;;;2.90;;
44973;SDS011;60981;50.720;11.342;2022-10-16T21:59:35;5.75;;;2.72;;
44973;SDS011;60981;50.720;11.342;2022-10-16T22:00:37;7.70;;;2.75;;
44973;SDS011;60981;50.720;11.342;2022-10-16T22:01:39;5.90;;;3.10;;
44973;SDS011;60981;50.720;11.342;2022-10-16T22:02:40;8.02;;;2.72;;
44973;SDS011;60981;50.720;11.342;2022-10-16T22:03:44;5.15;;;2.70;;
44973;SDS011;60981;50.720;11.342;2022-10-16T22:04:47;6.83;;;2.53;;
44973;SDS011;60981;50.720;11.342;2022-10-16T22:05:49;6.80;;;2.88;;
44973;SDS011;60981;50.720;11.342;2022-10-16T22:06:55;6.97;;;2.67;;
44973;SDS011;60981;50.720;11.342;2022-10-16T22:07:57;5.88;;;2.80;;
44973;SDS011;60981;50.720;11.342;2022-10-16T22:09:02;6.20;;;2.97;;
44973;SDS011;60981;50.720;11.342;2022-10-16T22:10:06;6.00;;;2.60;;
44973;SDS011;60981;50.720;11.342;2022-10-16T22:12:14;6.85;;;2.88;;
44973;SDS011;60981;50.720;11.342;2022-10-16T22:13:23;6.88;;;3.00;;
44973;SDS011;60981;50.720;11.342;2022-10-16T22:14:27;7.15;;;3.17;;
44973;SDS011;60981;50.720;11.342;2022-10-16T22:15:30;6.20;;;2.90;;
44973;SDS011;60981;50.720;11.342;2022-10-16T22:16:32;5.65;;;2.70;;
44973;SDS011;60981;50.720;11.342;2022-10-16T22:17:37;6.63;;;2.83;;
44973;SDS011;60981;50.720;11.342;2022-10-16T22:18:40;6.43;;;2.75;;
44973;SDS011;60981;50.720;11.342;2022-10-16T22:19:43;6.00;;;3.17;;
44973;SDS011;60981;50.720;11.342;2022-10-16T22:20:45;6.78;;;3.08;;
44973;SDS011;60981;50.720;11.342;2022-10-16T22:21:48;6.63;;;2.92;;
44973;SDS011;60981;50.720;11.342;2022-10-16T22:22:52;5.65;;;3.30;;
44973;SDS011;60981;50.720;11.342;2022-10-16T22:23:54;6.40;;;2.92;;
44973;SDS011;60981;50.720;11.342;2022-10-16T22:24:59;5.50;;;2.80;;
44973;SDS011;60981;50.720;11.342;2022-10-16T22:26:02;6.10;;;2.90;;
44973;SDS011;60981;50.720;11.342;2022-10-16T22:27:09;5.50;;;2.80;;
44973;SDS011;60981;50.720;11.342;2022-10-16T22:28:11;8.15;;;3.10;;
44973;SDS011;60981;50.720;11.342;2022-10-16T22:29:16;5.88;;;3.10;;
44973;SDS011;60981;50.720;11.342;2022-10-16T22:30:18;6.28;;;3.10;;
44973;SDS011;60981;50.720;11.342;2022-10-16T22:31:20;6.63;;;2.70;;
44973;SDS011;60981;50.720;11.342;2022-10-16T22:32:23;5.72;;;3.10;;
44973;SDS011;60981;50.720;11.342;2022-10-16T22:33:27;7.70;;;2.88;;
44973;SDS011;60981;50.720;11.342;2022-10-16T22:34:29;5.63;;;2.70;;
44973;SDS011;60981;50.720;11.342;2022-10-16T22:35:40;6.15;;;2.28;;
44973;SDS011;60981;50.720;11.342;2022-10-16T22:36:42;6.47;;;2.60;;
44973;SDS011;60981;50.720;11.342;2022-10-16T22:37:44;5.65;;;2.80;;
44973;SDS011;60981;50.720;11.342;2022-10-16T22:38:46;5.03;;;2.60;;
44973;SDS011;60981;50.720;11.342;2022-10-16T22:39:48;5.60;;;2.80;;
44973;SDS011;60981;50.720;11.342;2022-10-16T22:40:51;4.88;;;2.60;;
44973;SDS011;60981;50.720;11.342;2022-10-16T22:41:55;5.50;;;2.90;;
44973;SDS011;60981;50.720;11.342;2022-10-16T22:42:57;5.57;;;2.70;;
44973;SDS011;60981;50.720;11.342;2022-10-16T22:43:59;7.07;;;3.30;;
44973;SDS011;60981;50.720;11.342;2022-10-16T22:45:03;6.22;;;2.97;;
44973;SDS011;60981;50.720;11.342;2022-10-16T22:46:06;6.18;;;2.70;;
44973;SDS011;60981;50.720;11.342;2022-10-16T22:47:10;5.13;;;2.60;;
44973;SDS011;60981;50.720;11.342;2022-10-16T22:48:12;5.20;;;2.60;;
44973;SDS011;60981;50.720;11.342;2022-10-16T22:49:15;6.75;;;2.78;;
44973;SDS011;60981;50.720;11.342;2022-10-16T22:50:19;8.55;;;2.85;;
44973;SDS011;60981;50.720;11.342;2022-10-16T22:51:23;5.20;;;2.70;;
44973;SDS011;60981;50.720;11.342;2022-10-16T22:52:30;7.05;;;3.03;;
44973;SDS011;60981;50.720;11.342;2022-10-16T22:53:33;6.13;;;2.58;;
44973;SDS011;60981;50.720;11.342;2022-10-16T22:54:36;6.18;;;2.88;;
44973;SDS011;60981;50.720;11.342;2022-10-16T22:55:47;6.78;;;2.90;;
44973;SDS011;60981;50.720;11.342;2022-10-16T22:56:51;7.07;;;2.67;;
44973;SDS011;60981;50.720;11.342;2022-10-16T22:57:56;6.30;;;2.50;;
44973;SDS011;60981;50.720;11.342;2022-10-16T22:58:58;5.68;;;2.60;;
44973;SDS011;60981;50.720;11.342;2022-10-16T23:00:00;6.00;;;2.90;;
44973;SDS011;60981;50.720;11.342;2022-10-16T23:01:08;5.25;;;2.38;;
44973;SDS011;60981;50.720;11.342;2022-10-16T23:02:15;6.53;;;3.08;;
44973;SDS011;60981;50.720;11.342;2022-10-16T23:03:17;5.67;;;2.50;;
44973;SDS011;60981;50.720;11.342;2022-10-16T23:04:20;5.18;;;2.47;;
44973;SDS011;60981;50.720;11.342;2022-10-16T23:05:22;7.20;;;2.90;;
44973;SDS011;60981;50.720;11.342;2022-10-16T23:06:23;5.47;;;2.75;;
44973;SDS011;60981;50.720;11.342;2022-10-16T23:07:27;7.68;;;2.90;;
44973;SDS011;60981;50.720;11.342;2022-10-16T23:08:28;6.05;;;2.50;;
44973;SDS011;60981;50.720;11.342;2022-10-16T23:09:32;5.78;;;2.50;;
44973;SDS011;60981;50.720;11.342;2022-10-16T23:10:37;6.22;;;2.65;;
44973;SDS011;60981;50.720;11.342;2022-10-16T23:11:41;5.25;;;2.30;;
44973;SDS011;60981;50.720;11.342;2022-10-16T23:12:43;5.50;;;2.50;;
44973;SDS011;60981;50.720;11.342;2022-10-16T23:13:47;4.40;;;2.40;;
44973;SDS011;60981;50.720;11.342;2022-10-16T23:14:49;7.18;;;2.45;;
44973;SDS011;60981;50.720;11.342;2022-10-16T23:15:51;4.55;;;2.20;;
44973;SDS011;60981;50.720;11.342;2022-10-16T23:16:53;4.57;;;2.47;;
44973;SDS011;60981;50.720;11.342;2022-10-16T23:17:55;6.45;;;2.67;;
44973;SDS011;60981;50.720;11.342;2022-10-16T23:18:58;9.10;;;2.40;;
44973;SDS011;60981;50.720;11.342;2022-10-16T23:20:01;5.30;;;2.70;;
44973;SDS011;60981;50.720;11.342;2022-10-16T23:21:04;4.68;;;2.20;;
44973;SDS011;60981;50.720;11.342;2022-10-16T23:22:11;6.03;;;2.65;;
44973;SDS011;60981;50.720;11.342;2022-10-16T23:23:15;5.32;;;2.33;;
44973;SDS011;60981;50.720;11.342;2022-10-16T23:24:17;5.40;;;2.53;;
44973;SDS011;60981;50.720;11.342;2022-10-16T23:25:19;7.10;;;2.50;;
44973;SDS011;60981;50.720;11.342;2022-10-16T23:26:24;4.95;;;2.22;;
44973;SDS011;60981;50.720;11.342;2022-10-16T23:27:28;7.25;;;2.70;;
44973;SDS011;60981;50.720;11.342;2022-10-16T23:28:30;4.97;;;2.50;;
44973;SDS011;60981;50.720;11.342;2022-10-16T23:29:33;4.75;;;2.40;;
44973;SDS011;60981;50.720;11.342;2022-10-16T23:30:37;5.47;;;2.00;;
44973;SDS011;60981;50.720;11.342;2022-10-16T23:31:39;6.15;;;2.50;;
44973;SDS011;60981;50.720;11.342;2022-10-16T23:32:44;5.20;;;2.25;;
44973;SDS011;60981;50.720;11.342;2022-10-16T23:33:49;5.40;;;2.30;;
44973;SDS011;60981;50.720;11.342;2022-10-16T23:34:51;5.60;;;2.10;;
44973;SDS011;60981;50.720;11.342;2022-10-16T23:35:53;4.60;;;2.10;;
44973;SDS011;60981;50.720;11.342;2022-10-16T23:36:56;4.78;;;2.05;;
44973;SDS011;60981;50.720;11.342;2022-10-16T23:38:01;4.70;;;2.20;;
44973;SDS011;60981;50.720;11.342;2022-10-16T23:39:06;4.53;;;2.13;;
44973;SDS011;60981;50.720;11.342;2022-10-16T23:40:10;6.30;;;2.08;;
44973;SDS011;60981;50.720;11.342;2022-10-16T23:41:15;4.72;;;2.30;;
44973;SDS011;60981;50.720;11.342;2022-10-16T23:42:18;5.75;;;2.25;;
44973;SDS011;60981;50.720;11.342;2022-10-16T23:43:21;4.03;;;2.10;;
44973;SDS011;60981;50.720;11.342;2022-10-16T23:44:26;7.10;;;2.47;;
44973;SDS011;60981;50.720;11.342;2022-10-16T23:45:28;4.82;;;2.20;;
44973;SDS011;60981;50.720;11.342;2022-10-16T23:46:30;5.35;;;2.38;;
44973;SDS011;60981;50.720;11.342;2022-10-16T23:47:32;5.18;;;2.30;;
44973;SDS011;60981;50.720;11.342;2022-10-16T23:48:34;5.35;;;2.17;;
44973;SDS011;60981;50.720;11.342;2022-10-16T23:49:37;5.53;;;2.47;;
44973;SDS011;60981;50.720;11.342;2022-10-16T23:50:39;5.05;;;2.30;;
44973;SDS011;60981;50.720;11.342;2022-10-16T23:51:41;5.10;;;2.30;;
44973;SDS011;60981;50.720;11.342;2022-10-16T23:52:43;4.80;;;2.20;;
44973;SDS011;60981;50.720;11.342;2022-10-16T23:53:45;5.40;;;1.90;;
44973;SDS011;60981;50.720;11.342;2022-10-16T23:54:48;6.18;;;2.30;;
44973;SDS011;60981;50.720;11.342;2022-10-16T23:55:50;5.00;;;2.28;;
44973;SDS011;60981;50.720;11.342;2022-10-16T23:56:52;5.30;;;2.25;;
44973;SDS011;60981;50.720;11.342;2022-10-16T23:57:55;4.53;;;2.10;;
44973;SDS011;60981;50.720;11.342;2022-10-16T23:58:57;4.93;;;2.00;;
44973;SDS011;60981;50.720;11.342;2022-10-16T23:59:59;6.13;;;2.17;;
